sensor_id;sensor_type;location;lat;lon;timestamp;temperature;humidity
38746;DHT22;24488;0.000;0.000;2024-03-08T00:01:06;22.50;40.30
38746;DHT22;24488;0.000;0.000;2024-03-08T00:03:32;22.50;40.30
38746;DHT22;24488;0.000;0.000;2024-03-08T00:05:58;22.50;39.80
38746;DHT22;24488;0.000;0.000;2024-03-08T00:08:23;22.60;40.30
38746;DHT22;24488;0.000;0.000;2024-03-08T00:10:49;22.50;40.20
38746;DHT22;24488;0.000;0.000;2024-03-08T00:13:14;22.50;40.10
38746;DHT22;24488;0.000;0.000;2024-03-08T00:15:40;22.50;39.70
38746;DHT22;24488;0.000;0.000;2024-03-08T00:18:06;22.50;40.20
38746;DHT22;24488;0.000;0.000;2024-03-08T00:20:32;22.50;40.10
38746;DHT22;24488;0.000;0.000;2024-03-08T00:22:58;22.50;40.10
38746;DHT22;24488;0.000;0.000;2024-03-08T00:25:24;22.50;39.70
38746;DHT22;24488;0.000;0.000;2024-03-08T00:27:49;22.50;40.20
38746;DHT22;24488;0.000;0.000;2024-03-08T00:30:15;22.50;40.20
38746;DHT22;24488;0.000;0.000;2024-03-08T00:32:41;22.50;40.20
38746;DHT22;24488;0.000;0.000;2024-03-08T00:35:06;22.50;40.20
38746;DHT22;24488;0.000;0.000;2024-03-08T00:37:32;22.50;39.80
38746;DHT22;24488;0.000;0.000;2024-03-08T00:39:59;22.50;40.20
38746;DHT22;24488;0.000;0.000;2024-03-08T00:42:25;22.50;40.20
38746;DHT22;24488;0.000;0.000;2024-03-08T00:44:51;22.50;40.10
38746;DHT22;24488;0.000;0.000;2024-03-08T00:47:16;22.50;39.70
38746;DHT22;24488;0.000;0.000;2024-03-08T00:49:42;22.50;40.10
38746;DHT22;24488;0.000;0.000;2024-03-08T00:52:08;22.50;40.20
38746;DHT22;24488;0.000;0.000;2024-03-08T00:54:34;22.50;40.10
38746;DHT22;24488;0.000;0.000;2024-03-08T00:57:01;22.40;39.60
38746;DHT22;24488;0.000;0.000;2024-03-08T00:59:28;22.50;40.10
38746;DHT22;24488;0.000;0.000;2024-03-08T01:01:54;22.50;40.10
38746;DHT22;24488;0.000;0.000;2024-03-08T01:04:20;22.40;40.10
38746;DHT22;24488;0.000;0.000;2024-03-08T01:06:46;22.50;39.80
38746;DHT22;24488;0.000;0.000;2024-03-08T01:09:12;22.50;40.20
38746;DHT22;24488;0.000;0.000;2024-03-08T01:11:38;22.40;40.10
38746;DHT22;24488;0.000;0.000;2024-03-08T01:14:04;22.50;40.20
38746;DHT22;24488;0.000;0.000;2024-03-08T01:16:30;22.50;39.60
38746;DHT22;24488;0.000;0.000;2024-03-08T01:18:58;22.50;40.10
38746;DHT22;24488;0.000;0.000;2024-03-08T01:21:24;22.50;40.10
38746;DHT22;24488;0.000;0.000;2024-03-08T01:23:49;22.50;40.10
38746;DHT22;24488;0.000;0.000;2024-03-08T01:26:15;22.50;39.70
38746;DHT22;24488;0.000;0.000;2024-03-08T01:28:41;22.50;40.10
38746;DHT22;24488;0.000;0.000;2024-03-08T01:31:07;22.40;40.00
38746;DHT22;24488;0.000;0.000;2024-03-08T01:33:32;22.40;40.10
38746;DHT22;24488;0.000;0.000;2024-03-08T01:35:58;22.40;39.70
38746;DHT22;24488;0.000;0.000;2024-03-08T01:38:23;22.40;40.10
38746;DHT22;24488;0.000;0.000;2024-03-08T01:40:49;22.50;40.10
38746;DHT22;24488;0.000;0.000;2024-03-08T01:43:21;22.40;40.00
38746;DHT22;24488;0.000;0.000;2024-03-08T01:45:49;22.40;39.60
38746;DHT22;24488;0.000;0.000;2024-03-08T01:48:15;22.50;40.10
38746;DHT22;24488;0.000;0.000;2024-03-08T01:50:41;22.50;40.00
38746;DHT22;24488;0.000;0.000;2024-03-08T01:53:07;22.50;40.00
38746;DHT22;24488;0.000;0.000;2024-03-08T01:55:35;22.40;39.60
38746;DHT22;24488;0.000;0.000;2024-03-08T01:58:01;22.50;40.00
38746;DHT22;24488;0.000;0.000;2024-03-08T02:00:29;22.50;40.00
38746;DHT22;24488;0.000;0.000;2024-03-08T02:02:55;22.40;40.00
38746;DHT22;24488;0.000;0.000;2024-03-08T02:05:21;22.50;39.60
38746;DHT22;24488;0.000;0.000;2024-03-08T02:07:48;22.40;40.00
38746;DHT22;24488;0.000;0.000;2024-03-08T02:10:14;22.50;40.00
38746;DHT22;24488;0.000;0.000;2024-03-08T02:12:39;22.40;40.00
38746;DHT22;24488;0.000;0.000;2024-03-08T02:15:05;22.40;40.00
38746;DHT22;24488;0.000;0.000;2024-03-08T02:17:32;22.40;39.50
38746;DHT22;24488;0.000;0.000;2024-03-08T02:19:59;22.40;40.00
38746;DHT22;24488;0.000;0.000;2024-03-08T02:22:29;22.40;40.00
38746;DHT22;24488;0.000;0.000;2024-03-08T02:24:55;22.40;39.90
38746;DHT22;24488;0.000;0.000;2024-03-08T02:27:24;22.40;39.50
38746;DHT22;24488;0.000;0.000;2024-03-08T02:29:55;22.40;40.00
38746;DHT22;24488;0.000;0.000;2024-03-08T02:32:21;22.40;40.00
38746;DHT22;24488;0.000;0.000;2024-03-08T02:34:48;22.40;40.10
38746;DHT22;24488;0.000;0.000;2024-03-08T02:37:15;22.40;39.50
38746;DHT22;24488;0.000;0.000;2024-03-08T02:39:41;22.40;40.00
38746;DHT22;24488;0.000;0.000;2024-03-08T02:42:06;22.40;40.00
38746;DHT22;24488;0.000;0.000;2024-03-08T02:44:32;22.40;40.00
38746;DHT22;24488;0.000;0.000;2024-03-08T02:46:59;22.40;39.50
38746;DHT22;24488;0.000;0.000;2024-03-08T02:49:25;22.40;39.90
38746;DHT22;24488;0.000;0.000;2024-03-08T02:51:52;22.40;39.90
38746;DHT22;24488;0.000;0.000;2024-03-08T02:54:18;22.40;39.90
38746;DHT22;24488;0.000;0.000;2024-03-08T02:56:44;22.40;39.40
38746;DHT22;24488;0.000;0.000;2024-03-08T02:59:12;22.40;39.90
38746;DHT22;24488;0.000;0.000;2024-03-08T03:01:38;22.40;39.90
38746;DHT22;24488;0.000;0.000;2024-03-08T03:04:04;22.40;39.90
38746;DHT22;24488;0.000;0.000;2024-03-08T03:06:30;22.40;39.50
38746;DHT22;24488;0.000;0.000;2024-03-08T03:08:56;22.40;40.00
38746;DHT22;24488;0.000;0.000;2024-03-08T03:11:25;22.40;40.00
38746;DHT22;24488;0.000;0.000;2024-03-08T03:13:50;22.40;40.00
38746;DHT22;24488;0.000;0.000;2024-03-08T03:16:16;22.40;39.40
38746;DHT22;24488;0.000;0.000;2024-03-08T03:18:44;22.40;39.90
38746;DHT22;24488;0.000;0.000;2024-03-08T03:21:09;22.40;40.00
38746;DHT22;24488;0.000;0.000;2024-03-08T03:23:35;22.40;39.90
38746;DHT22;24488;0.000;0.000;2024-03-08T03:26:02;22.40;39.40
38746;DHT22;24488;0.000;0.000;2024-03-08T03:28:27;22.40;39.90
38746;DHT22;24488;0.000;0.000;2024-03-08T03:30:53;22.40;39.90
38746;DHT22;24488;0.000;0.000;2024-03-08T03:33:19;22.40;39.80
38746;DHT22;24488;0.000;0.000;2024-03-08T03:35:46;22.40;39.40
38746;DHT22;24488;0.000;0.000;2024-03-08T03:38:11;22.40;39.80
38746;DHT22;24488;0.000;0.000;2024-03-08T03:40:39;22.40;39.80
38746;DHT22;24488;0.000;0.000;2024-03-08T03:43:05;22.40;39.80
38746;DHT22;24488;0.000;0.000;2024-03-08T03:45:31;22.40;39.40
38746;DHT22;24488;0.000;0.000;2024-03-08T03:48:03;22.40;39.80
38746;DHT22;24488;0.000;0.000;2024-03-08T03:50:29;22.40;39.90
38746;DHT22;24488;0.000;0.000;2024-03-08T03:52:55;22.40;39.80
38746;DHT22;24488;0.000;0.000;2024-03-08T03:55:20;22.40;39.40
38746;DHT22;24488;0.000;0.000;2024-03-08T03:57:47;22.40;39.90
38746;DHT22;24488;0.000;0.000;2024-03-08T04:00:12;22.40;39.90
38746;DHT22;24488;0.000;0.000;2024-03-08T04:02:39;22.40;39.90
38746;DHT22;24488;0.000;0.000;2024-03-08T04:05:07;22.40;39.80
38746;DHT22;24488;0.000;0.000;2024-03-08T04:07:34;22.40;39.40
38746;DHT22;24488;0.000;0.000;2024-03-08T04:10:00;22.40;39.90
38746;DHT22;24488;0.000;0.000;2024-03-08T04:12:26;22.40;39.80
38746;DHT22;24488;0.000;0.000;2024-03-08T04:14:54;22.40;39.80
38746;DHT22;24488;0.000;0.000;2024-03-08T04:17:20;22.40;39.40
38746;DHT22;24488;0.000;0.000;2024-03-08T04:19:46;22.40;39.80
38746;DHT22;24488;0.000;0.000;2024-03-08T04:22:13;22.40;39.80
38746;DHT22;24488;0.000;0.000;2024-03-08T04:24:39;22.40;39.80
38746;DHT22;24488;0.000;0.000;2024-03-08T04:27:05;22.40;39.40
38746;DHT22;24488;0.000;0.000;2024-03-08T04:29:31;22.40;39.80
38746;DHT22;24488;0.000;0.000;2024-03-08T04:31:58;22.40;39.80
38746;DHT22;24488;0.000;0.000;2024-03-08T04:34:23;22.40;39.80
38746;DHT22;24488;0.000;0.000;2024-03-08T04:36:49;22.40;39.30
38746;DHT22;24488;0.000;0.000;2024-03-08T04:39:15;22.40;39.80
38746;DHT22;24488;0.000;0.000;2024-03-08T04:41:41;22.40;39.80
38746;DHT22;24488;0.000;0.000;2024-03-08T04:44:09;22.40;39.80
38746;DHT22;24488;0.000;0.000;2024-03-08T04:46:35;22.40;39.30
38746;DHT22;24488;0.000;0.000;2024-03-08T04:49:01;22.40;39.80
38746;DHT22;24488;0.000;0.000;2024-03-08T04:51:26;22.30;39.80
38746;DHT22;24488;0.000;0.000;2024-03-08T04:53:52;22.30;39.80
38746;DHT22;24488;0.000;0.000;2024-03-08T04:56:17;22.40;39.30
38746;DHT22;24488;0.000;0.000;2024-03-08T04:58:44;22.40;39.80
38746;DHT22;24488;0.000;0.000;2024-03-08T05:01:12;22.40;39.70
38746;DHT22;24488;0.000;0.000;2024-03-08T05:03:37;22.40;39.70
38746;DHT22;24488;0.000;0.000;2024-03-08T05:06:03;22.40;39.30
38746;DHT22;24488;0.000;0.000;2024-03-08T05:08:29;22.40;39.70
38746;DHT22;24488;0.000;0.000;2024-03-08T05:10:55;22.40;39.70
38746;DHT22;24488;0.000;0.000;2024-03-08T05:13:20;22.40;39.70
38746;DHT22;24488;0.000;0.000;2024-03-08T05:15:49;22.40;39.30
38746;DHT22;24488;0.000;0.000;2024-03-08T05:18:16;22.40;39.80
38746;DHT22;24488;0.000;0.000;2024-03-08T05:20:41;22.40;39.70
38746;DHT22;24488;0.000;0.000;2024-03-08T05:23:07;22.40;39.70
38746;DHT22;24488;0.000;0.000;2024-03-08T05:25:33;22.40;39.30
38746;DHT22;24488;0.000;0.000;2024-03-08T05:27:59;22.50;39.80
38746;DHT22;24488;0.000;0.000;2024-03-08T05:30:24;22.40;39.70
38746;DHT22;24488;0.000;0.000;2024-03-08T05:32:50;22.30;39.70
38746;DHT22;24488;0.000;0.000;2024-03-08T05:35:15;22.30;39.80
38746;DHT22;24488;0.000;0.000;2024-03-08T05:37:41;22.30;39.30
38746;DHT22;24488;0.000;0.000;2024-03-08T05:40:10;22.60;40.00
38746;DHT22;24488;0.000;0.000;2024-03-08T05:42:36;22.30;39.80
38746;DHT22;24488;0.000;0.000;2024-03-08T05:45:02;22.30;39.90
38746;DHT22;24488;0.000;0.000;2024-03-08T05:47:35;22.30;39.40
38746;DHT22;24488;0.000;0.000;2024-03-08T05:50:00;22.20;39.80
38746;DHT22;24488;0.000;0.000;2024-03-08T05:52:26;22.30;39.90
38746;DHT22;24488;0.000;0.000;2024-03-08T05:54:52;22.30;39.90
38746;DHT22;24488;0.000;0.000;2024-03-08T05:57:18;22.20;39.40
38746;DHT22;24488;0.000;0.000;2024-03-08T05:59:43;22.20;39.90
38746;DHT22;24488;0.000;0.000;2024-03-08T06:02:09;22.20;39.90
38746;DHT22;24488;0.000;0.000;2024-03-08T06:04:34;22.20;39.80
38746;DHT22;24488;0.000;0.000;2024-03-08T06:07:00;22.20;39.30
38746;DHT22;24488;0.000;0.000;2024-03-08T06:09:26;22.20;39.70
38746;DHT22;24488;0.000;0.000;2024-03-08T06:11:52;22.20;39.70
38746;DHT22;24488;0.000;0.000;2024-03-08T06:14:19;22.30;39.70
38746;DHT22;24488;0.000;0.000;2024-03-08T06:16:45;22.30;39.20
38746;DHT22;24488;0.000;0.000;2024-03-08T06:19:12;22.30;39.70
38746;DHT22;24488;0.000;0.000;2024-03-08T06:21:38;22.30;39.70
38746;DHT22;24488;0.000;0.000;2024-03-08T06:24:04;22.30;39.70
38746;DHT22;24488;0.000;0.000;2024-03-08T06:26:29;22.30;39.20
38746;DHT22;24488;0.000;0.000;2024-03-08T06:28:55;22.30;39.70
38746;DHT22;24488;0.000;0.000;2024-03-08T06:31:21;22.30;40.20
38746;DHT22;24488;0.000;0.000;2024-03-08T06:33:47;22.30;39.60
38746;DHT22;24488;0.000;0.000;2024-03-08T06:36:17;22.30;39.00
38746;DHT22;24488;0.000;0.000;2024-03-08T06:38:49;22.40;39.60
38746;DHT22;24488;0.000;0.000;2024-03-08T06:41:15;22.40;39.50
38746;DHT22;24488;0.000;0.000;2024-03-08T06:43:44;22.40;39.50
38746;DHT22;24488;0.000;0.000;2024-03-08T06:46:16;22.40;39.00
38746;DHT22;24488;0.000;0.000;2024-03-08T06:48:42;22.40;39.50
38746;DHT22;24488;0.000;0.000;2024-03-08T06:51:07;22.40;39.50
38746;DHT22;24488;0.000;0.000;2024-03-08T06:53:33;22.40;39.50
38746;DHT22;24488;0.000;0.000;2024-03-08T06:56:00;22.50;39.10
38746;DHT22;24488;0.000;0.000;2024-03-08T06:58:27;22.50;39.50
38746;DHT22;24488;0.000;0.000;2024-03-08T07:00:53;22.50;39.50
38746;DHT22;24488;0.000;0.000;2024-03-08T07:03:19;22.40;39.50
38746;DHT22;24488;0.000;0.000;2024-03-08T07:05:44;22.50;39.00
38746;DHT22;24488;0.000;0.000;2024-03-08T07:08:10;22.50;39.50
38746;DHT22;24488;0.000;0.000;2024-03-08T07:10:37;22.50;39.50
38746;DHT22;24488;0.000;0.000;2024-03-08T07:13:04;22.50;39.50
38746;DHT22;24488;0.000;0.000;2024-03-08T07:15:30;22.50;39.00
38746;DHT22;24488;0.000;0.000;2024-03-08T07:17:56;22.50;39.50
38746;DHT22;24488;0.000;0.000;2024-03-08T07:20:21;22.50;39.50
38746;DHT22;24488;0.000;0.000;2024-03-08T07:22:47;22.50;39.50
38746;DHT22;24488;0.000;0.000;2024-03-08T07:25:14;22.50;39.40
38746;DHT22;24488;0.000;0.000;2024-03-08T07:27:53;22.50;39.00
38746;DHT22;24488;0.000;0.000;2024-03-08T07:30:19;22.50;39.50
38746;DHT22;24488;0.000;0.000;2024-03-08T07:33:07;22.50;39.50
38746;DHT22;24488;0.000;0.000;2024-03-08T07:35:33;22.40;39.00
38746;DHT22;24488;0.000;0.000;2024-03-08T07:38:03;22.40;39.50
38746;DHT22;24488;0.000;0.000;2024-03-08T07:40:36;22.50;39.50
38746;DHT22;24488;0.000;0.000;2024-03-08T07:43:05;22.40;39.50
38746;DHT22;24488;0.000;0.000;2024-03-08T07:45:34;22.40;39.00
38746;DHT22;24488;0.000;0.000;2024-03-08T07:48:01;22.40;39.50
38746;DHT22;24488;0.000;0.000;2024-03-08T07:50:28;22.40;39.50
38746;DHT22;24488;0.000;0.000;2024-03-08T07:52:54;22.40;39.50
38746;DHT22;24488;0.000;0.000;2024-03-08T07:55:20;22.40;39.10
38746;DHT22;24488;0.000;0.000;2024-03-08T07:57:45;22.40;39.50
38746;DHT22;24488;0.000;0.000;2024-03-08T08:00:13;22.40;39.50
38746;DHT22;24488;0.000;0.000;2024-03-08T08:02:43;22.40;39.50
38746;DHT22;24488;0.000;0.000;2024-03-08T08:05:11;22.40;39.50
38746;DHT22;24488;0.000;0.000;2024-03-08T08:07:37;22.40;39.10
38746;DHT22;24488;0.000;0.000;2024-03-08T08:10:03;22.40;39.50
38746;DHT22;24488;0.000;0.000;2024-03-08T08:12:31;22.30;39.50
38746;DHT22;24488;0.000;0.000;2024-03-08T08:14:59;22.30;40.00
38746;DHT22;24488;0.000;0.000;2024-03-08T08:17:25;22.40;39.00
38746;DHT22;24488;0.000;0.000;2024-03-08T08:19:51;22.40;39.60
38746;DHT22;24488;0.000;0.000;2024-03-08T08:22:16;22.30;39.40
38746;DHT22;24488;0.000;0.000;2024-03-08T08:24:43;22.30;39.40
38746;DHT22;24488;0.000;0.000;2024-03-08T08:27:09;22.40;39.00
38746;DHT22;24488;0.000;0.000;2024-03-08T08:29:34;22.40;39.50
38746;DHT22;24488;0.000;0.000;2024-03-08T08:32:00;22.40;39.40
38746;DHT22;24488;0.000;0.000;2024-03-08T08:34:26;22.40;39.40
38746;DHT22;24488;0.000;0.000;2024-03-08T08:36:52;22.40;39.00
38746;DHT22;24488;0.000;0.000;2024-03-08T08:39:18;22.40;39.40
38746;DHT22;24488;0.000;0.000;2024-03-08T08:41:44;22.40;39.40
38746;DHT22;24488;0.000;0.000;2024-03-08T08:44:09;22.40;39.40
38746;DHT22;24488;0.000;0.000;2024-03-08T08:46:37;22.40;38.90
38746;DHT22;24488;0.000;0.000;2024-03-08T08:49:03;22.40;39.40
38746;DHT22;24488;0.000;0.000;2024-03-08T08:51:30;22.40;39.30
38746;DHT22;24488;0.000;0.000;2024-03-08T08:53:56;22.40;39.30
38746;DHT22;24488;0.000;0.000;2024-03-08T08:56:21;22.40;38.80
38746;DHT22;24488;0.000;0.000;2024-03-08T08:58:47;22.40;39.30
38746;DHT22;24488;0.000;0.000;2024-03-08T09:01:14;22.40;39.20
38746;DHT22;24488;0.000;0.000;2024-03-08T09:03:40;22.40;39.20
38746;DHT22;24488;0.000;0.000;2024-03-08T09:06:06;22.40;38.80
38746;DHT22;24488;0.000;0.000;2024-03-08T09:08:35;22.40;39.30
38746;DHT22;24488;0.000;0.000;2024-03-08T09:11:01;22.40;39.30
38746;DHT22;24488;0.000;0.000;2024-03-08T09:13:27;22.40;39.20
38746;DHT22;24488;0.000;0.000;2024-03-08T09:15:53;22.40;38.80
38746;DHT22;24488;0.000;0.000;2024-03-08T09:18:18;22.40;39.20
38746;DHT22;24488;0.000;0.000;2024-03-08T09:20:44;22.40;39.20
38746;DHT22;24488;0.000;0.000;2024-03-08T09:23:10;22.40;39.80
38746;DHT22;24488;0.000;0.000;2024-03-08T09:25:35;22.40;38.80
38746;DHT22;24488;0.000;0.000;2024-03-08T09:28:01;22.40;39.20
38746;DHT22;24488;0.000;0.000;2024-03-08T09:30:27;22.40;39.20
38746;DHT22;24488;0.000;0.000;2024-03-08T09:32:52;22.40;39.20
38746;DHT22;24488;0.000;0.000;2024-03-08T09:37:44;22.40;38.80
38746;DHT22;24488;0.000;0.000;2024-03-08T09:40:12;22.40;39.20
38746;DHT22;24488;0.000;0.000;2024-03-08T09:42:41;22.40;39.20
38746;DHT22;24488;0.000;0.000;2024-03-08T09:45:10;22.40;39.20
38746;DHT22;24488;0.000;0.000;2024-03-08T09:47:37;22.40;38.70
38746;DHT22;24488;0.000;0.000;2024-03-08T09:50:05;22.40;39.20
38746;DHT22;24488;0.000;0.000;2024-03-08T09:52:37;22.40;39.10
38746;DHT22;24488;0.000;0.000;2024-03-08T09:55:06;22.40;39.20
38746;DHT22;24488;0.000;0.000;2024-03-08T09:57:32;22.40;38.70
38746;DHT22;24488;0.000;0.000;2024-03-08T09:59:59;22.40;39.20
38746;DHT22;24488;0.000;0.000;2024-03-08T10:02:24;22.40;39.10
38746;DHT22;24488;0.000;0.000;2024-03-08T10:04:51;22.40;39.10
38746;DHT22;24488;0.000;0.000;2024-03-08T10:07:18;22.40;38.70
38746;DHT22;24488;0.000;0.000;2024-03-08T10:09:44;22.40;39.20
38746;DHT22;24488;0.000;0.000;2024-03-08T10:12:18;22.40;39.20
38746;DHT22;24488;0.000;0.000;2024-03-08T10:14:45;22.40;39.10
38746;DHT22;24488;0.000;0.000;2024-03-08T10:17:11;22.40;38.70
38746;DHT22;24488;0.000;0.000;2024-03-08T10:19:37;22.40;39.10
38746;DHT22;24488;0.000;0.000;2024-03-08T10:22:04;22.40;39.20
38746;DHT22;24488;0.000;0.000;2024-03-08T10:24:30;22.40;39.10
38746;DHT22;24488;0.000;0.000;2024-03-08T10:27:02;22.40;38.60
38746;DHT22;24488;0.000;0.000;2024-03-08T10:29:32;22.40;39.10
38746;DHT22;24488;0.000;0.000;2024-03-08T10:31:58;22.40;39.10
38746;DHT22;24488;0.000;0.000;2024-03-08T10:34:23;22.40;39.10
38746;DHT22;24488;0.000;0.000;2024-03-08T10:36:50;22.40;38.60
38746;DHT22;24488;0.000;0.000;2024-03-08T10:41:58;22.40;39.10
38746;DHT22;24488;0.000;0.000;2024-03-08T10:47:01;22.40;38.60
38746;DHT22;24488;0.000;0.000;2024-03-08T10:50:06;22.40;39.10
38746;DHT22;24488;0.000;0.000;2024-03-08T10:52:51;22.40;39.40
38746;DHT22;24488;0.000;0.000;2024-03-08T10:55:17;22.40;39.10
38746;DHT22;24488;0.000;0.000;2024-03-08T10:57:45;22.40;38.60
38746;DHT22;24488;0.000;0.000;2024-03-08T11:00:12;22.40;39.10
38746;DHT22;24488;0.000;0.000;2024-03-08T11:02:39;22.40;39.10
38746;DHT22;24488;0.000;0.000;2024-03-08T11:05:10;22.50;39.10
38746;DHT22;24488;0.000;0.000;2024-03-08T11:07:40;22.40;38.60
38746;DHT22;24488;0.000;0.000;2024-03-08T11:10:18;22.40;39.10
38746;DHT22;24488;0.000;0.000;2024-03-08T11:12:44;22.40;39.10
38746;DHT22;24488;0.000;0.000;2024-03-08T11:15:11;22.40;39.10
38746;DHT22;24488;0.000;0.000;2024-03-08T11:22:41;22.40;39.00
38746;DHT22;24488;0.000;0.000;2024-03-08T11:25:32;22.40;39.10
38746;DHT22;24488;0.000;0.000;2024-03-08T11:28:10;22.40;38.60
38746;DHT22;24488;0.000;0.000;2024-03-08T11:30:44;22.40;39.10
38746;DHT22;24488;0.000;0.000;2024-03-08T11:33:31;22.40;39.10
38746;DHT22;24488;0.000;0.000;2024-03-08T11:38:47;22.40;39.10
38746;DHT22;24488;0.000;0.000;2024-03-08T11:41:17;22.40;39.00
38746;DHT22;24488;0.000;0.000;2024-03-08T11:43:45;22.40;39.10
38746;DHT22;24488;0.000;0.000;2024-03-08T11:46:11;22.40;38.60
38746;DHT22;24488;0.000;0.000;2024-03-08T11:48:40;22.40;39.00
38746;DHT22;24488;0.000;0.000;2024-03-08T11:51:12;22.40;39.00
38746;DHT22;24488;0.000;0.000;2024-03-08T11:53:38;22.40;39.00
38746;DHT22;24488;0.000;0.000;2024-03-08T11:56:08;22.40;38.60
38746;DHT22;24488;0.000;0.000;2024-03-08T11:58:34;22.40;39.10
38746;DHT22;24488;0.000;0.000;2024-03-08T12:01:05;22.40;39.10
38746;DHT22;24488;0.000;0.000;2024-03-08T12:03:31;22.40;39.00
38746;DHT22;24488;0.000;0.000;2024-03-08T12:05:59;22.40;38.60
38746;DHT22;24488;0.000;0.000;2024-03-08T12:08:25;22.40;39.10
38746;DHT22;24488;0.000;0.000;2024-03-08T12:10:53;22.40;39.00
38746;DHT22;24488;0.000;0.000;2024-03-08T12:13:27;22.40;39.00
38746;DHT22;24488;0.000;0.000;2024-03-08T12:16:02;22.40;38.60
38746;DHT22;24488;0.000;0.000;2024-03-08T12:18:37;22.40;39.00
38746;DHT22;24488;0.000;0.000;2024-03-08T12:21:07;22.40;39.00
38746;DHT22;24488;0.000;0.000;2024-03-08T12:23:33;22.40;39.00
38746;DHT22;24488;0.000;0.000;2024-03-08T12:28:38;22.40;39.10
38746;DHT22;24488;0.000;0.000;2024-03-08T12:31:06;22.60;39.10
38746;DHT22;24488;0.000;0.000;2024-03-08T12:33:56;22.40;39.00
38746;DHT22;24488;0.000;0.000;2024-03-08T12:36:24;22.40;38.50
38746;DHT22;24488;0.000;0.000;2024-03-08T12:38:50;22.40;39.00
38746;DHT22;24488;0.000;0.000;2024-03-08T12:41:16;22.40;39.00
38746;DHT22;24488;0.000;0.000;2024-03-08T12:43:45;22.40;38.90
38746;DHT22;24488;0.000;0.000;2024-03-08T12:46:19;22.40;38.50
38746;DHT22;24488;0.000;0.000;2024-03-08T12:48:46;22.40;39.00
38746;DHT22;24488;0.000;0.000;2024-03-08T12:51:14;22.40;39.00
38746;DHT22;24488;0.000;0.000;2024-03-08T12:53:44;22.40;39.00
38746;DHT22;24488;0.000;0.000;2024-03-08T12:56:11;22.40;38.50
38746;DHT22;24488;0.000;0.000;2024-03-08T12:58:37;22.40;39.00
38746;DHT22;24488;0.000;0.000;2024-03-08T13:01:05;22.40;39.00
38746;DHT22;24488;0.000;0.000;2024-03-08T13:03:33;22.40;39.00
38746;DHT22;24488;0.000;0.000;2024-03-08T13:06:01;22.40;38.50
38746;DHT22;24488;0.000;0.000;2024-03-08T13:08:36;22.40;38.90
38746;DHT22;24488;0.000;0.000;2024-03-08T13:11:05;22.40;39.00
38746;DHT22;24488;0.000;0.000;2024-03-08T13:13:32;22.40;38.90
38746;DHT22;24488;0.000;0.000;2024-03-08T13:16:01;22.40;38.50
38746;DHT22;24488;0.000;0.000;2024-03-08T13:18:27;22.40;39.00
38746;DHT22;24488;0.000;0.000;2024-03-08T13:20:54;22.40;38.90
38746;DHT22;24488;0.000;0.000;2024-03-08T13:23:20;22.40;39.00
38746;DHT22;24488;0.000;0.000;2024-03-08T13:25:46;22.40;38.50
38746;DHT22;24488;0.000;0.000;2024-03-08T13:28:13;22.40;39.00
38746;DHT22;24488;0.000;0.000;2024-03-08T13:30:38;22.40;39.00
38746;DHT22;24488;0.000;0.000;2024-03-08T13:33:04;22.40;39.00
38746;DHT22;24488;0.000;0.000;2024-03-08T13:35:30;22.40;38.60
38746;DHT22;24488;0.000;0.000;2024-03-08T13:37:56;22.40;39.00
38746;DHT22;24488;0.000;0.000;2024-03-08T13:40:22;22.40;38.90
38746;DHT22;24488;0.000;0.000;2024-03-08T13:42:48;22.40;38.90
38746;DHT22;24488;0.000;0.000;2024-03-08T13:45:16;22.40;38.90
38746;DHT22;24488;0.000;0.000;2024-03-08T13:47:49;22.40;38.50
38746;DHT22;24488;0.000;0.000;2024-03-08T13:50:16;22.40;39.00
38746;DHT22;24488;0.000;0.000;2024-03-08T13:52:49;22.40;39.00
38746;DHT22;24488;0.000;0.000;2024-03-08T13:55:17;22.40;38.90
38746;DHT22;24488;0.000;0.000;2024-03-08T13:57:43;22.40;38.50
38746;DHT22;24488;0.000;0.000;2024-03-08T14:00:10;22.40;38.90
38746;DHT22;24488;0.000;0.000;2024-03-08T14:02:37;22.40;38.90
38746;DHT22;24488;0.000;0.000;2024-03-08T14:05:08;22.40;38.90
38746;DHT22;24488;0.000;0.000;2024-03-08T14:07:35;22.40;38.50
38746;DHT22;24488;0.000;0.000;2024-03-08T14:10:01;22.40;38.90
38746;DHT22;24488;0.000;0.000;2024-03-08T14:12:26;22.40;38.90
38746;DHT22;24488;0.000;0.000;2024-03-08T14:14:52;22.40;39.00
38746;DHT22;24488;0.000;0.000;2024-03-08T14:17:18;22.40;38.50
38746;DHT22;24488;0.000;0.000;2024-03-08T14:19:44;22.40;39.00
38746;DHT22;24488;0.000;0.000;2024-03-08T14:22:09;22.40;38.90
38746;DHT22;24488;0.000;0.000;2024-03-08T14:24:42;22.40;38.90
38746;DHT22;24488;0.000;0.000;2024-03-08T14:27:08;22.40;38.50
38746;DHT22;24488;0.000;0.000;2024-03-08T14:29:35;22.40;39.00
38746;DHT22;24488;0.000;0.000;2024-03-08T14:32:01;22.40;38.90
38746;DHT22;24488;0.000;0.000;2024-03-08T14:34:28;22.40;39.00
38746;DHT22;24488;0.000;0.000;2024-03-08T14:36:55;22.40;38.50
38746;DHT22;24488;0.000;0.000;2024-03-08T14:39:21;22.40;39.00
38746;DHT22;24488;0.000;0.000;2024-03-08T14:41:49;22.40;39.00
38746;DHT22;24488;0.000;0.000;2024-03-08T14:44:15;22.40;38.90
38746;DHT22;24488;0.000;0.000;2024-03-08T14:46:41;22.40;38.50
38746;DHT22;24488;0.000;0.000;2024-03-08T14:49:08;22.40;38.90
38746;DHT22;24488;0.000;0.000;2024-03-08T14:51:33;22.40;38.90
38746;DHT22;24488;0.000;0.000;2024-03-08T14:54:00;22.40;38.90
38746;DHT22;24488;0.000;0.000;2024-03-08T14:56:26;22.40;38.50
38746;DHT22;24488;0.000;0.000;2024-03-08T14:58:52;22.40;38.90
38746;DHT22;24488;0.000;0.000;2024-03-08T15:01:18;22.40;38.90
38746;DHT22;24488;0.000;0.000;2024-03-08T15:03:53;22.40;38.90
38746;DHT22;24488;0.000;0.000;2024-03-08T15:06:19;22.40;38.50
38746;DHT22;24488;0.000;0.000;2024-03-08T15:08:46;22.50;39.10
38746;DHT22;24488;0.000;0.000;2024-03-08T15:11:12;22.50;39.10
38746;DHT22;24488;0.000;0.000;2024-03-08T15:13:47;22.50;39.20
38746;DHT22;24488;0.000;0.000;2024-03-08T15:16:16;22.50;38.80
38746;DHT22;24488;0.000;0.000;2024-03-08T15:18:43;22.50;39.30
38746;DHT22;24488;0.000;0.000;2024-03-08T15:21:13;22.50;39.30
38746;DHT22;24488;0.000;0.000;2024-03-08T15:23:44;22.50;39.40
38746;DHT22;24488;0.000;0.000;2024-03-08T15:26:16;22.50;39.10
38746;DHT22;24488;0.000;0.000;2024-03-08T15:28:42;22.50;39.50
38746;DHT22;24488;0.000;0.000;2024-03-08T15:31:09;22.50;39.50
38746;DHT22;24488;0.000;0.000;2024-03-08T15:33:35;22.60;39.60
38746;DHT22;24488;0.000;0.000;2024-03-08T15:36:10;22.60;39.30
38746;DHT22;24488;0.000;0.000;2024-03-08T15:38:37;22.60;39.70
38746;DHT22;24488;0.000;0.000;2024-03-08T15:41:03;22.60;39.80
38746;DHT22;24488;0.000;0.000;2024-03-08T15:43:35;22.50;39.70
38746;DHT22;24488;0.000;0.000;2024-03-08T15:46:05;22.60;39.40
38746;DHT22;24488;0.000;0.000;2024-03-08T15:48:34;22.60;39.90
38746;DHT22;24488;0.000;0.000;2024-03-08T15:51:05;22.60;39.90
38746;DHT22;24488;0.000;0.000;2024-03-08T15:53:34;22.70;40.00
38746;DHT22;24488;0.000;0.000;2024-03-08T15:56:01;22.70;39.60
38746;DHT22;24488;0.000;0.000;2024-03-08T15:58:33;22.70;40.00
38746;DHT22;24488;0.000;0.000;2024-03-08T16:01:02;22.60;40.00
38746;DHT22;24488;0.000;0.000;2024-03-08T16:03:31;22.70;40.10